Time;durP1;ratioP1;P1;durP2;ratioP2;P2;SDS_P1;SDS_P2;PMS_P1;PMS_P2;Temp;Humidity;BMP_temperature;BMP_pressure;BME280_temperature;BME280_humidity;BME280_pressure;Samples;Min_cycle;Max_cycle;Signal;HPM_P1;HPM_P2
2021/12/29 00:00:47;;;;;;;244.07;34.28;;;7.80;99.90;;;;;;5016517;28;20081;-83
2021/12/29 00:03:13;;;;;;;184.95;30.77;;;8.00;99.90;;;;;;5033449;28;20052;-84
2021/12/29 00:05:38;;;;;;;174.60;29.35;;;7.80;99.90;;;;;;5048868;28;20056;-83
2021/12/29 00:08:05;;;;;;;234.68;36.45;;;7.90;99.90;;;;;;5048908;28;20053;-83
2021/12/29 00:10:32;;;;;;;257.50;34.80;;;8.00;99.90;;;;;;5032855;28;20056;-84
2021/12/29 00:12:58;;;;;;;222.18;33.60;;;8.10;99.90;;;;;;5033374;28;20104;-83
2021/12/29 00:15:27;;;;;;;245.43;33.63;;;8.10;99.90;;;;;;5000889;28;20109;-83
2021/12/29 00:17:54;;;;;;;221.05;32.65;;;8.10;99.90;;;;;;5032412;28;20596;-84
2021/12/29 00:20:24;;;;;;;237.52;29.95;;;8.20;99.90;;;;;;5016199;28;20053;-84
2021/12/29 00:22:50;;;;;;;459.80;42.60;;;8.20;99.90;;;;;;5032773;28;20049;-83
2021/12/29 00:25:16;;;;;;;101.95;21.98;;;8.20;99.90;;;;;;5032851;28;20053;-84
2021/12/29 00:27:42;;;;;;;215.57;28.58;;;8.20;99.90;;;;;;5033131;28;20133;-84
2021/12/29 00:30:10;;;;;;;93.47;19.73;;;8.20;99.90;;;;;;5032725;28;20456;-83
2021/12/29 00:32:35;;;;;;;210.60;28.73;;;8.20;99.90;;;;;;5016628;28;20103;-83
2021/12/29 00:35:02;;;;;;;337.48;31.88;;;8.30;99.90;;;;;;5032938;28;20045;-84
2021/12/29 00:37:28;;;;;;;92.53;20.25;;;8.30;99.90;;;;;;5016324;28;20045;-83
2021/12/29 00:39:54;;;;;;;173.02;25.33;;;8.30;99.90;;;;;;5048057;28;20048;-83
2021/12/29 00:42:20;;;;;;;192.25;25.80;;;8.40;99.90;;;;;;5032489;28;20042;-84
2021/12/29 00:44:46;;;;;;;76.20;18.20;;;8.30;99.90;;;;;;5034959;28;20050;-83
2021/12/29 00:47:12;;;;;;;197.70;27.42;;;8.30;99.90;;;;;;5020878;28;20037;-84
2021/12/29 00:49:39;;;;;;;256.63;28.25;;;8.30;99.90;;;;;;5037431;28;20042;-84
2021/12/29 00:52:06;;;;;;;362.15;32.55;;;8.20;99.90;;;;;;5036638;28;20115;-83
2021/12/29 00:54:32;;;;;;;133.10;22.10;;;8.30;99.90;;;;;;5036282;28;20053;-83
2021/12/29 00:56:58;;;;;;;141.52;20.95;;;8.20;99.90;;;;;;5036166;28;20099;-83
2021/12/29 00:59:24;;;;;;;166.77;25.75;;;8.30;99.90;;;;;;5036465;28;20140;-83
2021/12/29 01:01:51;;;;;;;197.02;24.52;;;8.30;99.90;;;;;;5003534;28;20175;-83
2021/12/29 01:04:17;;;;;;;237.05;26.48;;;8.20;99.90;;;;;;5036259;28;20045;-84
2021/12/29 01:06:43;;;;;;;171.00;23.25;;;8.20;99.90;;;;;;5036469;28;20377;-84
2021/12/29 01:09:09;;;;;;;94.55;17.58;;;8.10;99.90;;;;;;5022560;28;20053;-83
2021/12/29 01:11:35;;;;;;;131.10;19.83;;;8.00;99.90;;;;;;5043543;28;20145;-83
2021/12/29 01:14:01;;;;;;;195.05;23.65;;;8.00;99.90;;;;;;5036989;28;20056;-83
2021/12/29 01:19:04;;;;;;;254.43;26.95;;;8.10;99.90;;;;;;5036452;28;20057;-84
2021/12/29 01:21:31;;;;;;;90.53;17.70;;;8.20;99.90;;;;;;5019182;28;20053;-83
2021/12/29 01:23:57;;;;;;;332.48;29.45;;;8.10;99.90;;;;;;5036120;28;20053;-84
2021/12/29 01:26:23;;;;;;;297.55;27.25;;;8.20;99.90;;;;;;5035617;28;20104;-83
2021/12/29 01:28:49;;;;;;;282.95;27.17;;;8.20;99.90;;;;;;5018839;28;20046;-83
2021/12/29 01:31:15;;;;;;;279.50;28.08;;;8.20;99.90;;;;;;5035599;28;20137;-83
2021/12/29 01:33:40;;;;;;;237.38;26.58;;;8.20;99.90;;;;;;5035927;28;20088;-83
2021/12/29 01:36:07;;;;;;;314.02;30.08;;;8.20;99.90;;;;;;5035252;28;20432;-83
2021/12/29 01:38:32;;;;;;;352.92;30.05;;;8.20;99.90;;;;;;5002523;28;20041;-84
2021/12/29 01:40:58;;;;;;;365.85;32.05;;;8.20;99.90;;;;;;5036052;28;20042;-84
2021/12/29 01:43:27;;;;;;;363.65;31.92;;;8.10;99.90;;;;;;5019084;28;20057;-83
2021/12/29 01:45:53;;;;;;;348.77;31.15;;;8.10;99.90;;;;;;5052601;28;20055;-84
2021/12/29 01:48:18;;;;;;;375.25;32.97;;;8.00;99.90;;;;;;5018917;28;20136;-84
2021/12/29 01:50:49;;;;;;;301.77;31.13;;;8.10;99.90;;;;;;5035573;28;20053;-84
2021/12/29 01:53:23;;;;;;;391.67;35.17;;;8.20;99.90;;;;;;5035701;28;20061;-83
2021/12/29 01:55:50;;;;;;;389.02;34.10;;;8.10;99.90;;;;;;5034928;28;20129;-83
2021/12/29 01:58:16;;;;;;;417.35;36.75;;;8.10;99.90;;;;;;5051501;28;20401;-83
2021/12/29 02:00:42;;;;;;;376.67;34.60;;;8.00;99.90;;;;;;5018672;28;20042;-83
2021/12/29 02:03:08;;;;;;;226.32;28.55;;;7.90;99.90;;;;;;5036199;28;20143;-83
2021/12/29 02:05:39;;;;;;;473.70;39.53;;;7.90;99.90;;;;;;5018406;28;20096;-83
2021/12/29 02:08:05;;;;;;;307.10;31.00;;;8.00;99.90;;;;;;5034896;28;20053;-83
2021/12/29 02:10:36;;;;;;;362.23;32.13;;;7.90;99.90;;;;;;5034911;28;20068;-83
2021/12/29 02:13:03;;;;;;;473.95;37.92;;;8.00;99.90;;;;;;5052168;28;20096;-83
2021/12/29 02:15:28;;;;;;;454.27;37.55;;;8.00;99.90;;;;;;5034781;28;20049;-83
2021/12/29 02:17:54;;;;;;;457.33;36.75;;;8.10;99.90;;;;;;5034932;28;20400;-83
2021/12/29 02:20:21;;;;;;;401.88;33.58;;;8.20;99.90;;;;;;5018924;28;20396;-83
2021/12/29 02:22:52;;;;;;;309.42;31.90;;;8.20;99.90;;;;;;5034829;28;20059;-83
2021/12/29 02:27:49;;;;;;;304.75;29.65;;;8.20;99.90;;;;;;5018609;28;20053;-83
2021/12/29 02:30:18;;;;;;;290.38;30.48;;;8.10;99.90;;;;;;5018016;28;20085;-83
2021/12/29 02:32:45;;;;;;;329.38;31.27;;;8.20;99.90;;;;;;5017538;28;20049;-83
2021/12/29 02:35:12;;;;;;;326.80;29.55;;;8.20;99.90;;;;;;5051135;28;20484;-83
2021/12/29 02:37:38;;;;;;;314.13;29.55;;;8.20;99.90;;;;;;5018521;28;20451;-83
2021/12/29 02:40:09;;;;;;;168.25;23.48;;;8.20;99.90;;;;;;5034724;28;20053;-83
2021/12/29 02:42:40;;;;;;;241.63;26.33;;;8.20;99.90;;;;;;5034637;28;20064;-83
2021/12/29 02:45:14;;;;;;;211.75;24.55;;;8.20;99.90;;;;;;5034303;28;20053;-83
2021/12/29 02:47:40;;;;;;;153.13;22.85;;;8.20;99.90;;;;;;5034593;28;20083;-83
2021/12/29 02:50:07;;;;;;;166.13;22.15;;;8.10;99.90;;;;;;5051054;28;20052;-83
2021/12/29 02:52:32;;;;;;;199.70;22.27;;;8.10;99.90;;;;;;5040789;28;20090;-83
2021/12/29 02:54:58;;;;;;;147.77;21.48;;;8.10;99.90;;;;;;5054529;28;20505;-83
2021/12/29 02:57:24;;;;;;;167.70;21.70;;;8.10;99.90;;;;;;5034135;28;20045;-83
2021/12/29 02:59:49;;;;;;;179.25;22.88;;;8.20;99.90;;;;;;5038576;28;20504;-83
2021/12/29 03:02:15;;;;;;;207.75;23.85;;;8.20;99.90;;;;;;5034627;28;20056;-83
2021/12/29 03:04:41;;;;;;;142.15;21.25;;;8.30;99.90;;;;;;5017392;28;20057;-83
2021/12/29 03:07:07;;;;;;;217.25;24.50;;;8.30;99.90;;;;;;5000514;28;20072;-82
2021/12/29 03:09:32;;;;;;;141.18;21.35;;;8.40;99.90;;;;;;5016399;28;20456;-83
2021/12/29 03:11:58;;;;;;;194.93;24.13;;;8.40;99.90;;;;;;5033805;28;20052;-83
2021/12/29 03:14:25;;;;;;;185.15;22.90;;;8.50;99.90;;;;;;5033857;28;20057;-83
2021/12/29 03:16:51;;;;;;;191.77;23.83;;;8.60;99.90;;;;;;5000871;28;20042;-83
2021/12/29 03:19:17;;;;;;;167.88;21.90;;;8.60;99.90;;;;;;5033685;28;20496;-83
2021/12/29 03:21:44;;;;;;;252.52;24.90;;;8.60;99.90;;;;;;5016828;28;20102;-83
2021/12/29 03:24:12;;;;;;;135.23;19.17;;;8.60;99.90;;;;;;5033663;28;20124;-83
2021/12/29 03:26:38;;;;;;;205.07;23.50;;;8.60;99.90;;;;;;5033585;28;20058;-83
2021/12/29 03:29:05;;;;;;;171.15;22.00;;;8.60;99.90;;;;;;5033525;28;20184;-83
2021/12/29 03:31:33;;;;;;;186.60;23.48;;;8.60;99.90;;;;;;5033434;28;20045;-83
2021/12/29 03:33:59;;;;;;;156.50;22.17;;;8.60;99.90;;;;;;5017150;28;20041;-82
2021/12/29 03:36:26;;;;;;;169.60;23.65;;;8.50;99.90;;;;;;5033132;28;20057;-83
2021/12/29 03:38:51;;;;;;;124.88;22.58;;;8.60;99.90;;;;;;5032844;28;20058;-83
2021/12/29 03:41:19;;;;;;;237.23;27.45;;;8.60;99.90;;;;;;5032905;28;20053;-83
2021/12/29 03:43:46;;;;;;;208.30;24.52;;;8.60;99.90;;;;;;5017081;28;20107;-83
2021/12/29 03:46:13;;;;;;;233.65;27.30;;;8.60;99.90;;;;;;5050122;28;20547;-83
2021/12/29 03:48:43;;;;;;;258.10;27.60;;;8.80;99.90;;;;;;5050001;28;20059;-83
2021/12/29 03:51:09;;;;;;;182.43;25.70;;;8.70;99.90;;;;;;5033178;28;20045;-83
2021/12/29 03:53:36;;;;;;;114.38;22.38;;;8.60;99.90;;;;;;5016558;28;20123;-83
2021/12/29 03:56:03;;;;;;;179.18;27.17;;;8.60;99.90;;;;;;5016531;28;20054;-83
2021/12/29 03:58:29;;;;;;;246.73;30.52;;;8.70;99.90;;;;;;5049587;28;20041;-83
2021/12/29 04:00:59;;;;;;;348.77;33.30;;;8.80;99.90;;;;;;5016441;28;20083;-83
2021/12/29 04:03:25;;;;;;;307.92;32.88;;;8.80;99.90;;;;;;5033409;28;20049;-83
2021/12/29 04:05:51;;;;;;;342.10;34.88;;;8.80;99.90;;;;;;5033118;28;20045;-83
2021/12/29 04:08:17;;;;;;;284.00;33.58;;;8.80;99.90;;;;;;5032391;28;20046;-83
2021/12/29 04:10:43;;;;;;;289.05;33.28;;;8.80;99.90;;;;;;5049410;28;20049;-83
2021/12/29 04:13:08;;;;;;;260.88;34.80;;;8.70;99.90;;;;;;5032634;28;20052;-83
2021/12/29 04:15:36;;;;;;;300.27;36.28;;;8.70;99.90;;;;;;5000111;28;20041;-83
2021/12/29 04:18:04;;;;;;;308.10;36.15;;;8.70;99.90;;;;;;5016468;28;20045;-83
2021/12/29 04:23:17;;;;;;;;;;;8.70;99.90;;;;;;5033423;28;20111;-83
2021/12/29 04:25:46;;;;;;;377.10;39.08;;;8.80;99.90;;;;;;5033506;28;19921;-83
2021/12/29 04:28:20;;;;;;;195.20;31.27;;;8.80;99.90;;;;;;5049763;28;20408;-83
2021/12/29 04:30:46;;;;;;;303.45;37.10;;;8.80;99.90;;;;;;5032792;28;20049;-83
2021/12/29 04:33:12;;;;;;;289.33;38.28;;;8.80;99.90;;;;;;4999542;28;20045;-83
2021/12/29 04:35:38;;;;;;;188.40;32.15;;;8.80;99.90;;;;;;5048638;28;20052;-83
2021/12/29 04:38:04;;;;;;;219.05;34.25;;;8.70;99.90;;;;;;5031566;28;20099;-83
2021/12/29 04:40:30;;;;;;;228.60;36.80;;;8.70;99.90;;;;;;5032821;28;20081;-83
2021/12/29 04:42:55;;;;;;;246.02;37.10;;;8.70;99.90;;;;;;5032679;28;20104;-83
2021/12/29 04:45:21;;;;;;;192.15;33.25;;;8.70;99.90;;;;;;5032888;28;20489;-83
2021/12/29 04:47:48;;;;;;;281.05;38.22;;;8.70;99.90;;;;;;5016238;28;20045;-83
2021/12/29 04:50:36;;;;;;;264.45;39.90;;;8.70;99.90;;;;;;5032506;28;20072;-83
2021/12/29 04:53:04;;;;;;;303.27;41.63;;;8.70;99.90;;;;;;5032212;28;20101;-83
2021/12/29 04:55:30;;;;;;;243.25;38.58;;;8.70;99.90;;;;;;5049381;28;20053;-83
2021/12/29 04:57:59;;;;;;;275.98;37.65;;;8.70;99.90;;;;;;5034454;28;20056;-83
2021/12/29 05:00:28;;;;;;;202.43;35.80;;;8.80;99.90;;;;;;5015864;28;20057;-83
2021/12/29 05:02:55;;;;;;;299.58;39.03;;;8.80;99.90;;;;;;5021994;28;20514;-83
2021/12/29 05:05:40;;;;;;;347.50;40.55;;;8.90;99.90;;;;;;5032227;28;20045;-83
2021/12/29 05:08:25;;;;;;;323.85;40.83;;;8.90;99.90;;;;;;5013215;28;20496;-83
2021/12/29 05:10:59;;;;;;;311.70;38.05;;;8.80;99.90;;;;;;5030753;28;20045;-83
2021/12/29 05:13:27;;;;;;;272.92;37.72;;;8.80;99.90;;;;;;5032163;28;20045;-82
2021/12/29 05:15:55;;;;;;;227.93;34.15;;;8.80;99.90;;;;;;5032565;28;20046;-83
2021/12/29 05:18:22;;;;;;;219.70;36.33;;;8.80;99.90;;;;;;5032330;28;20053;-83
2021/12/29 05:20:47;;;;;;;252.80;36.65;;;8.80;99.90;;;;;;5032140;28;20033;-83
2021/12/29 05:23:13;;;;;;;273.35;40.17;;;8.80;99.90;;;;;;5032076;28;20543;-83
2021/12/29 05:25:39;;;;;;;256.05;39.15;;;8.80;99.90;;;;;;5032052;28;20060;-82
2021/12/29 05:28:06;;;;;;;259.10;38.70;;;8.70;99.90;;;;;;5032077;28;20434;-83
2021/12/29 05:30:32;;;;;;;305.83;37.88;;;8.70;99.90;;;;;;5034120;28;20072;-83
2021/12/29 05:32:57;;;;;;;285.50;40.65;;;8.70;99.90;;;;;;5019128;28;20112;-83
2021/12/29 05:35:23;;;;;;;233.90;39.92;;;8.80;99.90;;;;;;5036273;28;20096;-83
2021/12/29 05:37:49;;;;;;;297.35;39.90;;;8.80;99.90;;;;;;5018946;28;20042;-83
2021/12/29 05:40:15;;;;;;;286.15;41.58;;;8.90;99.90;;;;;;5018672;28;20046;-83
2021/12/29 05:42:42;;;;;;;295.45;41.17;;;8.90;99.90;;;;;;5019060;28;20506;-83
2021/12/29 05:45:11;;;;;;;300.58;41.50;;;8.90;99.90;;;;;;5035660;28;20088;-83
2021/12/29 05:47:37;;;;;;;324.27;41.70;;;8.90;99.90;;;;;;5035049;28;20069;-83
2021/12/29 05:50:09;;;;;;;181.02;38.78;;;8.90;99.90;;;;;;5035154;28;20136;-82
2021/12/29 05:52:36;;;;;;;203.68;37.90;;;8.90;99.90;;;;;;5035167;28;20049;-83
2021/12/29 05:55:02;;;;;;;263.17;41.65;;;8.90;99.90;;;;;;5035124;28;20451;-83
2021/12/29 05:57:28;;;;;;;273.75;42.90;;;8.80;99.90;;;;;;5034943;28;20080;-83
2021/12/29 05:59:53;;;;;;;320.98;41.40;;;8.80;99.90;;;;;;5035145;28;20088;-82
2021/12/29 06:02:19;;;;;;;244.30;42.35;;;8.90;99.90;;;;;;5035392;28;20551;-83
2021/12/29 06:04:45;;;;;;;243.43;37.50;;;8.90;99.90;;;;;;5018854;28;20049;-83
2021/12/29 06:07:11;;;;;;;278.38;42.28;;;8.90;99.90;;;;;;5019024;28;20550;-83
2021/12/29 06:09:37;;;;;;;274.50;42.00;;;8.90;99.90;;;;;;5001832;28;20400;-83
2021/12/29 06:12:03;;;;;;;269.42;43.30;;;8.80;99.90;;;;;;5035185;28;20136;-83
2021/12/29 06:14:29;;;;;;;265.55;42.05;;;8.90;99.90;;;;;;5018404;28;20045;-83
2021/12/29 06:16:54;;;;;;;189.85;40.20;;;8.90;99.90;;;;;;5018114;28;20126;-83
2021/12/29 06:19:20;;;;;;;190.55;38.55;;;8.80;99.90;;;;;;5018385;28;20045;-83
2021/12/29 06:21:46;;;;;;;225.00;42.00;;;8.80;99.90;;;;;;5018580;28;20068;-83
2021/12/29 06:24:12;;;;;;;266.40;44.15;;;8.80;99.90;;;;;;5018391;28;20410;-83
2021/12/29 06:26:37;;;;;;;278.95;42.85;;;8.80;99.90;;;;;;5034694;28;20041;-82
2021/12/29 06:29:04;;;;;;;223.27;41.65;;;8.80;99.90;;;;;;5018196;28;20053;-83
2021/12/29 06:31:29;;;;;;;265.95;40.22;;;8.80;99.90;;;;;;5034608;28;20489;-83
2021/12/29 06:33:55;;;;;;;215.48;36.42;;;8.90;99.90;;;;;;5017904;28;20135;-83
2021/12/29 06:36:21;;;;;;;208.48;40.20;;;8.80;99.90;;;;;;5034414;28;20133;-83
2021/12/29 06:38:47;;;;;;;283.42;41.00;;;8.90;99.90;;;;;;5034020;28;20104;-83
2021/12/29 06:41:12;;;;;;;230.15;39.90;;;8.80;99.90;;;;;;5033339;28;20056;-83
2021/12/29 06:43:38;;;;;;;233.25;38.45;;;8.90;99.90;;;;;;5034258;28;20081;-83
2021/12/29 06:46:09;;;;;;;232.57;36.83;;;8.80;99.90;;;;;;5034918;28;20092;-83
2021/12/29 06:48:35;;;;;;;267.23;40.83;;;8.80;99.90;;;;;;5034294;28;20458;-83
2021/12/29 06:51:00;;;;;;;241.60;38.20;;;8.90;99.90;;;;;;5034118;28;20049;-82
2021/12/29 06:53:29;;;;;;;253.27;39.15;;;8.80;99.90;;;;;;5017472;28;20056;-83
2021/12/29 06:55:55;;;;;;;222.82;35.95;;;8.70;99.90;;;;;;5034058;28;20497;-83
2021/12/29 06:58:21;;;;;;;288.30;39.88;;;8.90;99.90;;;;;;5033976;28;20045;-83
2021/12/29 07:00:47;;;;;;;257.17;38.65;;;8.80;99.90;;;;;;5017648;28;20052;-83
2021/12/29 07:03:13;;;;;;;260.48;38.33;;;8.90;99.90;;;;;;5033937;28;20041;-82
2021/12/29 07:05:40;;;;;;;279.92;38.03;;;8.80;99.90;;;;;;5033857;28;20103;-82
2021/12/29 07:08:06;;;;;;;259.80;38.83;;;8.80;99.90;;;;;;5033379;28;20080;-82
2021/12/29 07:10:32;;;;;;;272.35;40.80;;;8.90;99.90;;;;;;5017030;28;20382;-82
2021/12/29 07:12:57;;;;;;;365.40;46.15;;;8.90;99.90;;;;;;5017599;28;20061;-82
2021/12/29 07:15:23;;;;;;;217.50;41.17;;;9.00;99.90;;;;;;5034118;28;20049;-82
2021/12/29 07:17:49;;;;;;;404.70;49.83;;;8.90;99.90;;;;;;5034362;28;20538;-82
2021/12/29 07:20:15;;;;;;;448.02;59.78;;;8.90;99.90;;;;;;5033607;28;20048;-82
2021/12/29 07:22:40;;;;;;;378.85;49.17;;;8.80;99.90;;;;;;5033578;28;20045;-81
2021/12/29 07:25:06;;;;;;;373.80;53.50;;;8.90;99.90;;;;;;5017339;28;20046;-81
2021/12/29 07:27:32;;;;;;;282.35;42.20;;;8.80;99.90;;;;;;5033396;28;20045;-82
2021/12/29 07:29:58;;;;;;;423.38;48.47;;;8.70;99.90;;;;;;5033502;28;20424;-82
2021/12/29 07:32:23;;;;;;;430.98;48.55;;;8.70;99.90;;;;;;5016660;28;20041;-82
2021/12/29 07:34:49;;;;;;;390.17;47.85;;;8.80;99.90;;;;;;5033856;28;20095;-82
2021/12/29 07:37:15;;;;;;;151.82;33.88;;;8.90;99.90;;;;;;5016569;28;20087;-82
2021/12/29 07:39:40;;;;;;;433.15;48.15;;;8.90;99.90;;;;;;5015992;28;20060;-82
2021/12/29 07:42:07;;;;;;;365.80;42.60;;;9.00;99.90;;;;;;5016832;28;20045;-82
2021/12/29 07:44:33;;;;;;;383.92;48.78;;;8.90;99.90;;;;;;5016846;28;20045;-82
2021/12/29 07:46:59;;;;;;;432.65;47.00;;;8.90;99.90;;;;;;5033270;28;20087;-82
2021/12/29 07:49:27;;;;;;;485.70;52.47;;;8.80;99.90;;;;;;5016697;28;20053;-82
2021/12/29 07:51:53;;;;;;;272.67;37.83;;;8.90;99.90;;;;;;5033129;28;20455;-82
2021/12/29 07:54:20;;;;;;;389.20;41.88;;;8.90;99.90;;;;;;5032720;28;20058;-82
2021/12/29 07:56:45;;;;;;;404.73;43.78;;;8.90;99.90;;;;;;5016378;28;20442;-82
2021/12/29 07:59:11;;;;;;;392.67;44.17;;;8.90;99.90;;;;;;5016638;28;20041;-81
2021/12/29 08:01:40;;;;;;;286.33;37.22;;;8.80;99.90;;;;;;5033065;28;20045;-81
2021/12/29 08:04:05;;;;;;;383.00;43.65;;;8.80;99.90;;;;;;5032900;28;20045;-82
2021/12/29 08:06:35;;;;;;;298.80;37.38;;;8.90;99.90;;;;;;5033044;28;20179;-82
2021/12/29 08:09:01;;;;;;;291.23;36.88;;;8.90;99.90;;;;;;5032511;28;20488;-82
2021/12/29 08:11:26;;;;;;;303.65;37.40;;;8.90;99.90;;;;;;5016367;28;20041;-82
2021/12/29 08:13:52;;;;;;;354.33;40.40;;;8.90;99.90;;;;;;5032823;28;20543;-82
2021/12/29 08:16:22;;;;;;;257.02;32.95;;;8.80;99.90;;;;;;5032231;28;20046;-78
2021/12/29 08:18:48;;;;;;;286.27;34.50;;;8.80;99.90;;;;;;5032637;28;20049;-78
2021/12/29 08:21:14;;;;;;;318.58;37.17;;;8.90;99.90;;;;;;5032365;28;20065;-82
2021/12/29 08:23:40;;;;;;;341.30;36.00;;;8.90;99.90;;;;;;5032506;28;20041;-81
2021/12/29 08:26:06;;;;;;;231.52;30.23;;;8.90;99.90;;;;;;5032658;28;20053;-77
2021/12/29 08:28:34;;;;;;;239.07;29.85;;;8.90;99.90;;;;;;5016210;28;20049;-77
2021/12/29 08:31:00;;;;;;;238.48;32.05;;;8.90;99.90;;;;;;5016079;28;20045;-77
2021/12/29 08:33:26;;;;;;;247.20;33.95;;;8.90;99.90;;;;;;5015890;28;20141;-77
2021/12/29 08:35:52;;;;;;;261.88;34.10;;;8.90;99.90;;;;;;5032247;28;20091;-77
2021/12/29 08:38:18;;;;;;;267.65;34.55;;;8.90;99.90;;;;;;5015678;28;20045;-77
2021/12/29 08:40:44;;;;;;;288.83;33.75;;;8.80;99.90;;;;;;5032537;28;20057;-79
2021/12/29 08:43:11;;;;;;;237.85;31.50;;;8.80;99.90;;;;;;5034445;28;20056;-83
2021/12/29 08:45:38;;;;;;;287.20;35.47;;;8.70;99.90;;;;;;5039945;28;20116;-81
2021/12/29 08:48:05;;;;;;;250.60;33.67;;;8.80;99.90;;;;;;5034319;28;20049;-77
2021/12/29 08:50:31;;;;;;;269.15;33.67;;;8.80;99.90;;;;;;5032333;28;20053;-78
2021/12/29 08:53:02;;;;;;;222.18;32.13;;;8.80;99.90;;;;;;5032280;28;20070;-77
2021/12/29 08:55:28;;;;;;;208.82;31.55;;;8.90;99.90;;;;;;5032413;28;20060;-78
2021/12/29 08:57:54;;;;;;;172.60;29.75;;;8.80;99.90;;;;;;5032413;28;20042;-78
2021/12/29 09:00:20;;;;;;;258.73;34.75;;;8.80;99.90;;;;;;5032328;28;20476;-77
2021/12/29 09:02:47;;;;;;;225.95;32.03;;;8.90;99.90;;;;;;5032293;28;20049;-77
2021/12/29 09:05:16;;;;;;;241.10;31.05;;;8.80;99.90;;;;;;5033846;28;20052;-77
2021/12/29 09:07:43;;;;;;;247.85;33.75;;;8.90;99.90;;;;;;5036035;28;20056;-78
2021/12/29 09:10:11;;;;;;;193.25;30.35;;;8.90;99.90;;;;;;5020274;28;20053;-79
2021/12/29 09:12:37;;;;;;;222.02;30.23;;;8.90;99.90;;;;;;5036066;28;20128;-77
2021/12/29 09:15:04;;;;;;;93.07;21.42;;;8.90;99.90;;;;;;5019676;28;20156;-78
2021/12/29 09:17:30;;;;;;;241.68;32.40;;;8.90;99.90;;;;;;5035642;28;20053;-78
2021/12/29 09:19:56;;;;;;;261.75;32.47;;;9.00;99.90;;;;;;5036214;28;20064;-77
2021/12/29 09:22:22;;;;;;;250.25;33.20;;;9.00;99.90;;;;;;5020126;28;20052;-78
2021/12/29 09:24:48;;;;;;;253.10;34.90;;;9.10;99.90;;;;;;5035723;28;20041;-79
2021/12/29 09:27:16;;;;;;;300.35;35.13;;;9.10;99.90;;;;;;5035702;28;20085;-78
2021/12/29 09:29:42;;;;;;;445.30;42.30;;;9.10;99.90;;;;;;5035647;28;20124;-77
2021/12/29 09:32:07;;;;;;;309.08;36.33;;;9.10;99.90;;;;;;5018931;28;20096;-77
2021/12/29 09:34:34;;;;;;;392.73;40.55;;;9.10;99.90;;;;;;5010115;28;20045;-78
2021/12/29 09:37:01;;;;;;;412.92;41.05;;;9.10;99.90;;;;;;5051100;28;20485;-77
2021/12/29 09:39:27;;;;;;;378.58;38.22;;;9.20;99.90;;;;;;5016721;28;20128;-78
2021/12/29 09:41:53;;;;;;;323.95;38.35;;;9.10;99.90;;;;;;5035112;28;20050;-78
2021/12/29 09:44:19;;;;;;;335.90;36.50;;;9.20;99.90;;;;;;5034957;28;20034;-78
2021/12/29 09:46:48;;;;;;;203.52;29.70;;;9.20;99.90;;;;;;5035473;28;20393;-78
2021/12/29 09:49:14;;;;;;;312.08;36.33;;;9.20;99.90;;;;;;5035001;28;20481;-78
2021/12/29 09:51:40;;;;;;;290.48;31.20;;;9.30;99.90;;;;;;5021806;28;20050;-78
2021/12/29 09:54:06;;;;;;;357.65;34.22;;;9.30;99.90;;;;;;5018048;28;20179;-77
2021/12/29 09:56:31;;;;;;;105.97;21.25;;;9.40;99.90;;;;;;5017787;28;20041;-78
2021/12/29 09:58:59;;;;;;;280.92;30.45;;;9.30;99.90;;;;;;5037485;28;20033;-77
2021/12/29 10:01:25;;;;;;;257.77;27.00;;;9.50;99.90;;;;;;5053833;28;20071;-77
2021/12/29 10:03:51;;;;;;;380.90;33.88;;;9.70;99.90;;;;;;5053900;28;20080;-78
2021/12/29 10:06:17;;;;;;;294.90;30.33;;;9.60;99.90;;;;;;5049248;28;20076;-78
2021/12/29 10:08:47;;;;;;;156.82;23.85;;;9.50;99.90;;;;;;5016310;28;20061;-80
2021/12/29 10:11:24;;;;;;;198.13;28.13;;;9.50;99.90;;;;;;5023407;28;20164;-81
2021/12/29 10:13:49;;;;;;;233.75;27.15;;;9.60;99.90;;;;;;5034964;28;20407;-78
2021/12/29 10:16:19;;;;;;;188.90;24.67;;;9.60;99.90;;;;;;5050340;28;20049;-78
2021/12/29 10:18:48;;;;;;;113.55;21.30;;;9.60;99.90;;;;;;5034841;28;20045;-75
2021/12/29 10:21:17;;;;;;;129.50;20.48;;;9.60;99.90;;;;;;5033826;28;20050;-78
2021/12/29 10:23:45;;;;;;;130.30;20.35;;;9.60;99.90;;;;;;5024309;28;20111;-79
2021/12/29 10:26:19;;;;;;;108.97;19.30;;;9.60;99.90;;;;;;5018067;28;20074;-79
2021/12/29 10:28:48;;;;;;;97.85;18.17;;;9.60;99.90;;;;;;5033000;28;20065;-78
2021/12/29 10:31:16;;;;;;;87.03;18.55;;;9.60;99.90;;;;;;4998422;28;20045;-78
2021/12/29 10:33:44;;;;;;;95.07;18.10;;;9.50;99.90;;;;;;5014564;28;20104;-78
2021/12/29 10:36:21;;;;;;;75.18;15.50;;;9.50;99.90;;;;;;5022810;28;20044;-81
2021/12/29 10:38:54;;;;;;;87.78;17.10;;;9.40;99.90;;;;;;5032836;28;20052;-80
2021/12/29 10:41:20;;;;;;;78.03;16.42;;;9.40;99.90;;;;;;5031186;28;20044;-79
2021/12/29 10:43:57;;;;;;;81.75;17.58;;;9.40;99.90;;;;;;5014505;28;20050;-79
2021/12/29 10:46:24;;;;;;;96.95;18.20;;;9.50;99.90;;;;;;4998186;28;20049;-77
2021/12/29 10:48:51;;;;;;;101.88;20.92;;;9.50;99.90;;;;;;4981814;28;20057;-77
2021/12/29 10:51:18;;;;;;;81.43;19.50;;;9.50;99.90;;;;;;4998653;28;20057;-78
2021/12/29 10:53:44;;;;;;;86.68;20.67;;;9.50;99.90;;;;;;5014415;28;20057;-81
2021/12/29 10:56:24;;;;;;;90.22;20.10;;;9.50;99.90;;;;;;5033833;28;20409;-80
2021/12/29 10:58:53;;;;;;;78.40;19.70;;;9.50;99.90;;;;;;5034168;28;20103;-74
2021/12/29 11:01:20;;;;;;;69.47;18.20;;;9.40;99.90;;;;;;5022584;28;20057;-77
2021/12/29 11:03:58;;;;;;;82.93;20.42;;;9.40;99.90;;;;;;5015598;28;20485;-77
2021/12/29 11:06:26;;;;;;;76.50;19.58;;;9.60;99.90;;;;;;5047148;28;20136;-77
2021/12/29 11:08:58;;;;;;;78.15;19.75;;;9.50;99.90;;;;;;5027424;28;20053;-79
2021/12/29 11:11:40;;;;;;;89.22;21.63;;;9.50;99.90;;;;;;5031666;28;20497;-80
2021/12/29 11:14:21;;;;;;;72.80;19.80;;;9.60;99.90;;;;;;5033647;28;20046;-80
2021/12/29 11:17:04;;;;;;;80.85;19.25;;;9.60;99.90;;;;;;5032869;28;20052;-80
2021/12/29 11:19:30;;;;;;;84.05;20.20;;;9.50;99.90;;;;;;5016944;28;20061;-81
2021/12/29 11:22:12;;;;;;;81.15;22.42;;;9.50;99.90;;;;;;5017032;28;20120;-78
2021/12/29 11:24:39;;;;;;;107.10;26.58;;;9.40;99.90;;;;;;5007906;28;20066;-78
2021/12/29 11:27:16;;;;;;;122.10;28.33;;;9.50;99.90;;;;;;5032363;28;20056;-78
2021/12/29 11:29:55;;;;;;;95.82;24.88;;;9.50;99.90;;;;;;5015117;28;20075;-80
2021/12/29 11:32:24;;;;;;;72.35;21.15;;;9.60;99.90;;;;;;5032562;28;20045;-80
2021/12/29 11:35:13;;;;;;;95.32;23.25;;;9.70;99.90;;;;;;5033067;28;20133;-80
2021/12/29 11:37:51;;;;;;;118.53;25.02;;;9.80;99.90;;;;;;5032864;28;20049;-78
2021/12/29 11:40:20;;;;;;;96.28;22.27;;;9.80;99.90;;;;;;5032853;28;20484;-78
2021/12/29 11:42:47;;;;;;;109.80;22.67;;;9.70;99.90;;;;;;5033413;28;20088;-78
2021/12/29 11:45:13;;;;;;;102.00;21.70;;;9.90;99.90;;;;;;5033405;28;20045;-78
2021/12/29 11:47:40;;;;;;;106.55;23.65;;;10.00;99.90;;;;;;5033271;28;20078;-78
2021/12/29 11:50:08;;;;;;;102.95;23.88;;;10.00;99.90;;;;;;5033192;28;20096;-78
2021/12/29 11:53:05;;;;;;;112.72;24.63;;;10.00;99.90;;;;;;5032824;28;20152;-78
2021/12/29 11:55:34;;;;;;;78.03;20.50;;;10.10;99.90;;;;;;5066384;28;20095;-78
2021/12/29 11:58:14;;;;;;;100.35;23.20;;;10.10;99.90;;;;;;5066278;28;20053;-78
2021/12/29 12:00:41;;;;;;;93.60;21.25;;;10.20;99.90;;;;;;5033296;28;20052;-78
2021/12/29 12:03:14;;;;;;;54.28;16.60;;;10.20;99.90;;;;;;5066465;28;20053;-78
2021/12/29 12:05:43;;;;;;;96.63;23.17;;;10.10;99.90;;;;;;5033413;28;20053;-78
2021/12/29 12:08:12;;;;;;;84.15;19.83;;;10.30;99.90;;;;;;5032887;28;20461;-79
2021/12/29 12:10:39;;;;;;;41.33;14.88;;;10.30;99.90;;;;;;5017873;28;20132;-76
2021/12/29 12:13:22;;;;;;;73.60;17.90;;;10.40;99.90;;;;;;5032803;28;20049;-78
2021/12/29 12:15:49;;;;;;;44.70;15.77;;;10.50;99.90;;;;;;5066096;28;20048;-78
2021/12/29 12:18:15;;;;;;;68.55;18.10;;;10.50;99.90;;;;;;5032707;28;20049;-78
2021/12/29 12:20:49;;;;;;;57.97;17.08;;;10.50;99.90;;;;;;5032620;28;20053;-78
2021/12/29 12:23:29;;;;;;;62.30;17.10;;;10.40;99.90;;;;;;5066341;28;20126;-77
2021/12/29 12:26:09;;;;;;;39.95;13.23;;;10.40;99.90;;;;;;5048716;28;20046;-77
2021/12/29 12:28:47;;;;;;;41.35;12.65;;;10.30;99.90;;;;;;5066334;28;20064;-77
2021/12/29 12:31:39;;;;;;;36.67;12.75;;;10.30;99.90;;;;;;5032879;28;20049;-77
2021/12/29 12:34:13;;;;;;;45.70;14.18;;;10.30;99.90;;;;;;5015060;28;20396;-78
2021/12/29 12:36:41;;;;;;;54.95;15.43;;;10.20;99.90;;;;;;5065892;28;20104;-76
2021/12/29 12:39:13;;;;;;;40.90;13.20;;;10.20;99.90;;;;;;5070349;28;20049;-76